sensor_id;sensor_type;location;lat;lon;timestamp;P1;durP1;ratioP1;P2;durP2;ratioP2
29314;SDS011;16320;53.954;9.506;2022-11-15T00:03:59;94.53;;;41.00;;
29314;SDS011;16320;53.954;9.506;2022-11-15T00:07:03;90.07;;;40.95;;
29314;SDS011;16320;53.954;9.506;2022-11-15T00:10:08;94.40;;;41.45;;
29314;SDS011;16320;53.954;9.506;2022-11-15T00:13:13;97.95;;;42.70;;
29314;SDS011;16320;53.954;9.506;2022-11-15T00:16:17;97.38;;;42.10;;
29314;SDS011;16320;53.954;9.506;2022-11-15T00:19:21;91.57;;;41.50;;
29314;SDS011;16320;53.954;9.506;2022-11-15T00:22:31;91.13;;;39.95;;
29314;SDS011;16320;53.954;9.506;2022-11-15T00:25:36;96.55;;;43.28;;
29314;SDS011;16320;53.954;9.506;2022-11-15T00:28:41;92.35;;;40.58;;
29314;SDS011;16320;53.954;9.506;2022-11-15T00:31:46;96.85;;;40.78;;
29314;SDS011;16320;53.954;9.506;2022-11-15T00:34:50;95.22;;;41.25;;
29314;SDS011;16320;53.954;9.506;2022-11-15T00:37:54;93.38;;;40.47;;
29314;SDS011;16320;53.954;9.506;2022-11-15T00:40:58;93.53;;;39.95;;
29314;SDS011;16320;53.954;9.506;2022-11-15T00:44:11;85.25;;;39.30;;
29314;SDS011;16320;53.954;9.506;2022-11-15T00:47:15;90.40;;;40.88;;
29314;SDS011;16320;53.954;9.506;2022-11-15T00:53:24;92.13;;;39.05;;
29314;SDS011;16320;53.954;9.506;2022-11-15T00:56:28;100.93;;;41.90;;
29314;SDS011;16320;53.954;9.506;2022-11-15T00:59:32;92.00;;;42.50;;
29314;SDS011;16320;53.954;9.506;2022-11-15T01:05:41;85.25;;;38.38;;
29314;SDS011;16320;53.954;9.506;2022-11-15T01:08:45;97.10;;;40.90;;
29314;SDS011;16320;53.954;9.506;2022-11-15T01:11:50;94.93;;;41.60;;
29314;SDS011;16320;53.954;9.506;2022-11-15T01:14:55;96.55;;;42.78;;
29314;SDS011;16320;53.954;9.506;2022-11-15T01:18:00;92.88;;;40.65;;
29314;SDS011;16320;53.954;9.506;2022-11-15T01:21:08;86.75;;;38.13;;
29314;SDS011;16320;53.954;9.506;2022-11-15T01:24:15;85.05;;;38.85;;
29314;SDS011;16320;53.954;9.506;2022-11-15T01:27:20;88.22;;;40.20;;
29314;SDS011;16320;53.954;9.506;2022-11-15T01:30:25;87.70;;;38.80;;
29314;SDS011;16320;53.954;9.506;2022-11-15T01:33:29;84.93;;;37.97;;
29314;SDS011;16320;53.954;9.506;2022-11-15T01:36:34;81.30;;;38.25;;
29314;SDS011;16320;53.954;9.506;2022-11-15T01:39:39;81.68;;;37.55;;
29314;SDS011;16320;53.954;9.506;2022-11-15T01:42:43;81.07;;;37.88;;
29314;SDS011;16320;53.954;9.506;2022-11-15T01:45:52;78.93;;;35.90;;
29314;SDS011;16320;53.954;9.506;2022-11-15T01:49:11;85.63;;;39.97;;
29314;SDS011;16320;53.954;9.506;2022-11-15T01:52:22;83.30;;;37.92;;
29314;SDS011;16320;53.954;9.506;2022-11-15T01:55:29;81.78;;;37.83;;
29314;SDS011;16320;53.954;9.506;2022-11-15T01:58:34;75.80;;;34.80;;
29314;SDS011;16320;53.954;9.506;2022-11-15T02:01:40;82.10;;;38.05;;
29314;SDS011;16320;53.954;9.506;2022-11-15T02:04:46;75.20;;;36.72;;
29314;SDS011;16320;53.954;9.506;2022-11-15T02:07:51;75.30;;;34.88;;
29314;SDS011;16320;53.954;9.506;2022-11-15T02:10:55;72.82;;;34.45;;
29314;SDS011;16320;53.954;9.506;2022-11-15T02:14:00;69.70;;;34.53;;
29314;SDS011;16320;53.954;9.506;2022-11-15T02:17:17;68.25;;;33.45;;
29314;SDS011;16320;53.954;9.506;2022-11-15T02:41:04;68.93;;;32.90;;
29314;SDS011;16320;53.954;9.506;2022-11-15T02:44:17;75.25;;;35.40;;
29314;SDS011;16320;53.954;9.506;2022-11-15T02:47:27;63.22;;;32.05;;
29314;SDS011;16320;53.954;9.506;2022-11-15T02:50:36;67.43;;;31.98;;
29314;SDS011;16320;53.954;9.506;2022-11-15T02:53:41;64.82;;;32.33;;
29314;SDS011;16320;53.954;9.506;2022-11-15T02:56:45;70.57;;;32.85;;
29314;SDS011;16320;53.954;9.506;2022-11-15T03:03:20;62.95;;;32.05;;
29314;SDS011;16320;53.954;9.506;2022-11-15T03:10:24;62.28;;;31.67;;
29314;SDS011;16320;53.954;9.506;2022-11-15T03:20:42;64.53;;;31.65;;
29314;SDS011;16320;53.954;9.506;2022-11-15T03:23:47;63.08;;;31.75;;
29314;SDS011;16320;53.954;9.506;2022-11-15T03:26:54;65.82;;;32.50;;
29314;SDS011;16320;53.954;9.506;2022-11-15T03:30:02;61.88;;;31.98;;
29314;SDS011;16320;53.954;9.506;2022-11-15T03:33:09;65.03;;;33.22;;
29314;SDS011;16320;53.954;9.506;2022-11-15T03:36:15;69.03;;;33.38;;
29314;SDS011;16320;53.954;9.506;2022-11-15T03:39:21;72.78;;;32.03;;
29314;SDS011;16320;53.954;9.506;2022-11-15T03:42:28;68.25;;;33.53;;
29314;SDS011;16320;53.954;9.506;2022-11-15T03:45:58;68.68;;;33.20;;
29314;SDS011;16320;53.954;9.506;2022-11-15T03:49:15;66.32;;;31.20;;
29314;SDS011;16320;53.954;9.506;2022-11-15T03:52:30;60.28;;;30.55;;
29314;SDS011;16320;53.954;9.506;2022-11-15T03:55:37;69.97;;;31.50;;
29314;SDS011;16320;53.954;9.506;2022-11-15T03:58:41;69.95;;;32.95;;
29314;SDS011;16320;53.954;9.506;2022-11-15T04:01:45;63.78;;;31.85;;
29314;SDS011;16320;53.954;9.506;2022-11-15T04:04:50;66.13;;;30.85;;
29314;SDS011;16320;53.954;9.506;2022-11-15T04:07:55;74.32;;;32.63;;
29314;SDS011;16320;53.954;9.506;2022-11-15T04:10:59;74.07;;;33.50;;
29314;SDS011;16320;53.954;9.506;2022-11-15T04:14:05;77.53;;;36.13;;
29314;SDS011;16320;53.954;9.506;2022-11-15T04:17:09;78.65;;;36.50;;
29314;SDS011;16320;53.954;9.506;2022-11-15T04:20:32;72.63;;;34.92;;
29314;SDS011;16320;53.954;9.506;2022-11-15T04:23:54;82.53;;;36.13;;
29314;SDS011;16320;53.954;9.506;2022-11-15T04:27:16;78.68;;;34.80;;
29314;SDS011;16320;53.954;9.506;2022-11-15T04:30:21;76.07;;;34.72;;
29314;SDS011;16320;53.954;9.506;2022-11-15T04:33:25;69.75;;;33.47;;
29314;SDS011;16320;53.954;9.506;2022-11-15T04:36:30;67.90;;;33.65;;
29314;SDS011;16320;53.954;9.506;2022-11-15T04:39:53;67.93;;;32.10;;
29314;SDS011;16320;53.954;9.506;2022-11-15T04:46:06;69.60;;;32.13;;
29314;SDS011;16320;53.954;9.506;2022-11-15T04:49:11;69.93;;;31.25;;
29314;SDS011;16320;53.954;9.506;2022-11-15T04:52:15;61.85;;;30.35;;
29314;SDS011;16320;53.954;9.506;2022-11-15T04:55:20;55.40;;;30.13;;
29314;SDS011;16320;53.954;9.506;2022-11-15T04:58:25;59.42;;;29.77;;
29314;SDS011;16320;53.954;9.506;2022-11-15T05:01:29;54.67;;;26.85;;
29314;SDS011;16320;53.954;9.506;2022-11-15T05:04:34;55.38;;;28.60;;
29314;SDS011;16320;53.954;9.506;2022-11-15T05:07:38;51.47;;;27.05;;
29314;SDS011;16320;53.954;9.506;2022-11-15T05:10:43;52.25;;;27.80;;
29314;SDS011;16320;53.954;9.506;2022-11-15T05:13:49;55.83;;;28.05;;
29314;SDS011;16320;53.954;9.506;2022-11-15T05:16:53;53.55;;;28.00;;
29314;SDS011;16320;53.954;9.506;2022-11-15T05:19:58;53.45;;;27.27;;
29314;SDS011;16320;53.954;9.506;2022-11-15T05:23:02;48.58;;;25.48;;
29314;SDS011;16320;53.954;9.506;2022-11-15T05:26:07;53.38;;;27.60;;
29314;SDS011;16320;53.954;9.506;2022-11-15T05:29:12;51.50;;;26.98;;
29314;SDS011;16320;53.954;9.506;2022-11-15T05:32:17;50.30;;;25.75;;
29314;SDS011;16320;53.954;9.506;2022-11-15T05:35:36;52.70;;;26.95;;
29314;SDS011;16320;53.954;9.506;2022-11-15T05:38:50;50.42;;;26.02;;
29314;SDS011;16320;53.954;9.506;2022-11-15T05:41:56;52.22;;;28.25;;
29314;SDS011;16320;53.954;9.506;2022-11-15T05:45:10;48.72;;;25.85;;
29314;SDS011;16320;53.954;9.506;2022-11-15T05:48:15;51.22;;;26.42;;
29314;SDS011;16320;53.954;9.506;2022-11-15T05:51:20;52.60;;;26.60;;
29314;SDS011;16320;53.954;9.506;2022-11-15T05:54:26;55.00;;;25.77;;
29314;SDS011;16320;53.954;9.506;2022-11-15T05:57:30;52.38;;;27.17;;
29314;SDS011;16320;53.954;9.506;2022-11-15T06:00:34;51.65;;;26.75;;
29314;SDS011;16320;53.954;9.506;2022-11-15T06:03:39;54.42;;;26.42;;
29314;SDS011;16320;53.954;9.506;2022-11-15T06:06:43;50.90;;;25.17;;
29314;SDS011;16320;53.954;9.506;2022-11-15T06:09:47;46.90;;;25.17;;
29314;SDS011;16320;53.954;9.506;2022-11-15T06:16:07;55.70;;;26.92;;
29314;SDS011;16320;53.954;9.506;2022-11-15T06:19:11;50.45;;;26.45;;
29314;SDS011;16320;53.954;9.506;2022-11-15T06:22:15;51.63;;;27.13;;
29314;SDS011;16320;53.954;9.506;2022-11-15T06:25:20;47.80;;;26.13;;
29314;SDS011;16320;53.954;9.506;2022-11-15T06:31:32;51.75;;;27.73;;
29314;SDS011;16320;53.954;9.506;2022-11-15T06:34:38;47.33;;;26.02;;
29314;SDS011;16320;53.954;9.506;2022-11-15T06:37:43;51.53;;;27.98;;
29314;SDS011;16320;53.954;9.506;2022-11-15T06:40:50;54.08;;;26.00;;
29314;SDS011;16320;53.954;9.506;2022-11-15T06:43:54;52.70;;;26.17;;
29314;SDS011;16320;53.954;9.506;2022-11-15T06:46:59;53.53;;;28.67;;
29314;SDS011;16320;53.954;9.506;2022-11-15T06:50:03;50.67;;;27.63;;
29314;SDS011;16320;53.954;9.506;2022-11-15T06:53:09;51.90;;;28.15;;
29314;SDS011;16320;53.954;9.506;2022-11-15T06:56:13;52.45;;;26.88;;
29314;SDS011;16320;53.954;9.506;2022-11-15T06:59:17;51.55;;;26.80;;
29314;SDS011;16320;53.954;9.506;2022-11-15T07:02:21;58.53;;;27.30;;
29314;SDS011;16320;53.954;9.506;2022-11-15T07:05:26;53.75;;;26.48;;
29314;SDS011;16320;53.954;9.506;2022-11-15T07:08:31;49.85;;;26.88;;
29314;SDS011;16320;53.954;9.506;2022-11-15T07:11:35;54.25;;;28.25;;
29314;SDS011;16320;53.954;9.506;2022-11-15T07:14:40;53.47;;;27.50;;
29314;SDS011;16320;53.954;9.506;2022-11-15T07:17:44;57.10;;;29.25;;
29314;SDS011;16320;53.954;9.506;2022-11-15T07:20:49;49.40;;;26.02;;
29314;SDS011;16320;53.954;9.506;2022-11-15T07:23:53;57.45;;;27.98;;
29314;SDS011;16320;53.954;9.506;2022-11-15T07:26:57;51.75;;;26.70;;
29314;SDS011;16320;53.954;9.506;2022-11-15T07:30:02;63.45;;;27.13;;
29314;SDS011;16320;53.954;9.506;2022-11-15T07:33:08;54.35;;;27.20;;
29314;SDS011;16320;53.954;9.506;2022-11-15T07:36:12;46.60;;;25.20;;
29314;SDS011;16320;53.954;9.506;2022-11-15T07:39:16;48.90;;;25.77;;
29314;SDS011;16320;53.954;9.506;2022-11-15T07:42:21;53.22;;;27.23;;
29314;SDS011;16320;53.954;9.506;2022-11-15T07:45:44;51.42;;;26.02;;
29314;SDS011;16320;53.954;9.506;2022-11-15T07:48:49;47.75;;;25.88;;
29314;SDS011;16320;53.954;9.506;2022-11-15T07:51:54;46.25;;;25.85;;
29314;SDS011;16320;53.954;9.506;2022-11-15T07:54:58;50.25;;;25.33;;
29314;SDS011;16320;53.954;9.506;2022-11-15T07:58:03;47.35;;;24.52;;
29314;SDS011;16320;53.954;9.506;2022-11-15T08:01:10;48.85;;;25.42;;
29314;SDS011;16320;53.954;9.506;2022-11-15T08:04:16;47.03;;;25.88;;
29314;SDS011;16320;53.954;9.506;2022-11-15T08:07:20;48.30;;;25.98;;
29314;SDS011;16320;53.954;9.506;2022-11-15T08:10:25;48.42;;;24.83;;
29314;SDS011;16320;53.954;9.506;2022-11-15T08:13:32;42.20;;;23.52;;
29314;SDS011;16320;53.954;9.506;2022-11-15T08:16:38;43.15;;;25.15;;
29314;SDS011;16320;53.954;9.506;2022-11-15T08:19:42;41.85;;;23.80;;
29314;SDS011;16320;53.954;9.506;2022-11-15T08:22:47;50.40;;;24.75;;
29314;SDS011;16320;53.954;9.506;2022-11-15T08:25:51;49.72;;;26.48;;
29314;SDS011;16320;53.954;9.506;2022-11-15T08:28:55;47.40;;;26.25;;
29314;SDS011;16320;53.954;9.506;2022-11-15T08:32:00;50.58;;;25.52;;
29314;SDS011;16320;53.954;9.506;2022-11-15T08:35:04;43.55;;;24.08;;
29314;SDS011;16320;53.954;9.506;2022-11-15T08:38:11;39.70;;;23.35;;
29314;SDS011;16320;53.954;9.506;2022-11-15T08:41:35;46.03;;;25.30;;
29314;SDS011;16320;53.954;9.506;2022-11-15T08:44:42;40.58;;;24.35;;
29314;SDS011;16320;53.954;9.506;2022-11-15T08:47:47;43.22;;;25.42;;
29314;SDS011;16320;53.954;9.506;2022-11-15T08:50:56;47.33;;;26.88;;
29314;SDS011;16320;53.954;9.506;2022-11-15T08:57:05;41.80;;;25.40;;
29314;SDS011;16320;53.954;9.506;2022-11-15T09:00:11;40.65;;;23.42;;
29314;SDS011;16320;53.954;9.506;2022-11-15T09:03:17;39.15;;;22.58;;
29314;SDS011;16320;53.954;9.506;2022-11-15T09:06:21;48.85;;;25.23;;
29314;SDS011;16320;53.954;9.506;2022-11-15T09:09:25;41.58;;;24.80;;
29314;SDS011;16320;53.954;9.506;2022-11-15T09:12:29;41.38;;;22.88;;
29314;SDS011;16320;53.954;9.506;2022-11-15T09:15:34;42.13;;;23.23;;
29314;SDS011;16320;53.954;9.506;2022-11-15T09:18:38;37.97;;;21.48;;
29314;SDS011;16320;53.954;9.506;2022-11-15T09:21:42;43.05;;;23.73;;
29314;SDS011;16320;53.954;9.506;2022-11-15T09:24:47;41.35;;;22.48;;
29314;SDS011;16320;53.954;9.506;2022-11-15T09:27:54;41.63;;;22.95;;
29314;SDS011;16320;53.954;9.506;2022-11-15T09:30:59;36.50;;;22.90;;
29314;SDS011;16320;53.954;9.506;2022-11-15T09:34:05;43.42;;;24.73;;
29314;SDS011;16320;53.954;9.506;2022-11-15T09:37:10;38.88;;;23.02;;
29314;SDS011;16320;53.954;9.506;2022-11-15T09:40:16;42.67;;;24.55;;
29314;SDS011;16320;53.954;9.506;2022-11-15T09:50:20;38.35;;;21.60;;
29314;SDS011;16320;53.954;9.506;2022-11-15T10:00:58;39.22;;;22.48;;
29314;SDS011;16320;53.954;9.506;2022-11-15T10:04:06;44.90;;;25.30;;
29314;SDS011;16320;53.954;9.506;2022-11-15T10:11:09;43.10;;;23.98;;
29314;SDS011;16320;53.954;9.506;2022-11-15T10:14:38;43.42;;;25.02;;
29314;SDS011;16320;53.954;9.506;2022-11-15T10:20:58;42.13;;;23.95;;
29314;SDS011;16320;53.954;9.506;2022-11-15T10:24:18;41.38;;;23.58;;
29314;SDS011;16320;53.954;9.506;2022-11-15T10:27:28;40.75;;;23.10;;
29314;SDS011;16320;53.954;9.506;2022-11-15T10:30:34;38.28;;;22.38;;
29314;SDS011;16320;53.954;9.506;2022-11-15T10:33:43;39.88;;;22.35;;
29314;SDS011;16320;53.954;9.506;2022-11-15T10:36:57;38.75;;;22.77;;
29314;SDS011;16320;53.954;9.506;2022-11-15T10:40:15;39.75;;;22.70;;
29314;SDS011;16320;53.954;9.506;2022-11-15T10:43:28;38.05;;;21.85;;
29314;SDS011;16320;53.954;9.506;2022-11-15T10:46:37;39.55;;;21.73;;
29314;SDS011;16320;53.954;9.506;2022-11-15T10:49:55;36.47;;;22.75;;
29314;SDS011;16320;53.954;9.506;2022-11-15T10:53:03;37.40;;;22.35;;
29314;SDS011;16320;53.954;9.506;2022-11-15T10:56:16;35.85;;;21.80;;
29314;SDS011;16320;53.954;9.506;2022-11-15T10:59:26;37.08;;;21.80;;
29314;SDS011;16320;53.954;9.506;2022-11-15T11:02:45;41.20;;;21.70;;
29314;SDS011;16320;53.954;9.506;2022-11-15T11:06:03;35.13;;;21.48;;
29314;SDS011;16320;53.954;9.506;2022-11-15T11:09:43;36.22;;;21.40;;
29314;SDS011;16320;53.954;9.506;2022-11-15T11:12:46;36.40;;;21.35;;
29314;SDS011;16320;53.954;9.506;2022-11-15T11:26:38;37.42;;;20.80;;
29314;SDS011;16320;53.954;9.506;2022-11-15T11:30:14;37.88;;;21.23;;
29314;SDS011;16320;53.954;9.506;2022-11-15T11:33:57;35.63;;;22.27;;
29314;SDS011;16320;53.954;9.506;2022-11-15T11:37:17;41.10;;;21.73;;
29314;SDS011;16320;53.954;9.506;2022-11-15T11:51:49;36.38;;;20.30;;
29314;SDS011;16320;53.954;9.506;2022-11-15T11:55:32;31.75;;;19.83;;
29314;SDS011;16320;53.954;9.506;2022-11-15T11:58:49;33.50;;;20.23;;
29314;SDS011;16320;53.954;9.506;2022-11-15T12:01:57;34.38;;;20.00;;
29314;SDS011;16320;53.954;9.506;2022-11-15T12:05:56;31.33;;;20.38;;
29314;SDS011;16320;53.954;9.506;2022-11-15T12:16:27;30.85;;;19.20;;
29314;SDS011;16320;53.954;9.506;2022-11-15T12:19:36;31.17;;;19.40;;
29314;SDS011;16320;53.954;9.506;2022-11-15T12:22:45;32.70;;;19.08;;
29314;SDS011;16320;53.954;9.506;2022-11-15T12:29:15;29.95;;;18.63;;
29314;SDS011;16320;53.954;9.506;2022-11-15T12:32:36;34.50;;;19.00;;
29314;SDS011;16320;53.954;9.506;2022-11-15T12:35:42;31.88;;;19.20;;
29314;SDS011;16320;53.954;9.506;2022-11-15T12:45:25;29.35;;;18.02;;
29314;SDS011;16320;53.954;9.506;2022-11-15T12:54:51;32.30;;;17.02;;
29314;SDS011;16320;53.954;9.506;2022-11-15T12:58:19;32.75;;;17.70;;
29314;SDS011;16320;53.954;9.506;2022-11-15T13:04:52;26.23;;;16.70;;
29314;SDS011;16320;53.954;9.506;2022-11-15T13:08:38;26.50;;;15.25;;
29314;SDS011;16320;53.954;9.506;2022-11-15T13:11:50;23.52;;;15.55;;
29314;SDS011;16320;53.954;9.506;2022-11-15T13:14:57;24.35;;;15.18;;
29314;SDS011;16320;53.954;9.506;2022-11-15T13:18:25;23.17;;;15.15;;
29314;SDS011;16320;53.954;9.506;2022-11-15T13:21:35;25.65;;;15.68;;
29314;SDS011;16320;53.954;9.506;2022-11-15T13:25:26;24.83;;;15.32;;
29314;SDS011;16320;53.954;9.506;2022-11-15T13:28:52;23.42;;;14.43;;
29314;SDS011;16320;53.954;9.506;2022-11-15T13:31:59;24.58;;;14.60;;
29314;SDS011;16320;53.954;9.506;2022-11-15T13:35:06;22.83;;;13.88;;
29314;SDS011;16320;53.954;9.506;2022-11-15T13:38:33;21.58;;;13.82;;
29314;SDS011;16320;53.954;9.506;2022-11-15T13:41:49;21.35;;;13.98;;
29314;SDS011;16320;53.954;9.506;2022-11-15T13:44:56;21.35;;;14.50;;
29314;SDS011;16320;53.954;9.506;2022-11-15T13:48:07;23.20;;;14.65;;
29314;SDS011;16320;53.954;9.506;2022-11-15T13:51:17;25.35;;;14.68;;
29314;SDS011;16320;53.954;9.506;2022-11-15T13:58:40;21.52;;;13.63;;
29314;SDS011;16320;53.954;9.506;2022-11-15T14:01:50;20.90;;;13.82;;
29314;SDS011;16320;53.954;9.506;2022-11-15T14:08:33;20.73;;;13.80;;
29314;SDS011;16320;53.954;9.506;2022-11-15T14:12:49;23.35;;;13.77;;
29314;SDS011;16320;53.954;9.506;2022-11-15T14:16:17;20.88;;;14.07;;
29314;SDS011;16320;53.954;9.506;2022-11-15T14:19:50;21.42;;;13.73;;
29314;SDS011;16320;53.954;9.506;2022-11-15T14:24:18;20.25;;;13.43;;
29314;SDS011;16320;53.954;9.506;2022-11-15T14:28:44;20.67;;;13.18;;
29314;SDS011;16320;53.954;9.506;2022-11-15T14:37:25;20.30;;;13.20;;
29314;SDS011;16320;53.954;9.506;2022-11-15T14:45:55;21.58;;;14.18;;
29314;SDS011;16320;53.954;9.506;2022-11-15T14:53:36;19.95;;;13.23;;
29314;SDS011;16320;53.954;9.506;2022-11-15T14:56:49;25.13;;;15.85;;
29314;SDS011;16320;53.954;9.506;2022-11-15T14:59:52;24.65;;;15.35;;
29314;SDS011;16320;53.954;9.506;2022-11-15T15:02:59;26.25;;;15.07;;
29314;SDS011;16320;53.954;9.506;2022-11-15T15:06:03;26.98;;;16.33;;
29314;SDS011;16320;53.954;9.506;2022-11-15T15:09:27;27.67;;;16.60;;
29314;SDS011;16320;53.954;9.506;2022-11-15T15:12:31;23.48;;;16.08;;
29314;SDS011;16320;53.954;9.506;2022-11-15T15:15:51;25.50;;;16.50;;
29314;SDS011;16320;53.954;9.506;2022-11-15T15:18:56;27.00;;;15.93;;
29314;SDS011;16320;53.954;9.506;2022-11-15T15:22:01;26.05;;;14.95;;
29314;SDS011;16320;53.954;9.506;2022-11-15T15:25:19;27.48;;;15.60;;
29314;SDS011;16320;53.954;9.506;2022-11-15T15:28:33;24.95;;;14.95;;
29314;SDS011;16320;53.954;9.506;2022-11-15T15:31:44;31.20;;;15.45;;
29314;SDS011;16320;53.954;9.506;2022-11-15T15:34:49;21.30;;;13.75;;
29314;SDS011;16320;53.954;9.506;2022-11-15T15:37:53;23.27;;;14.43;;
29314;SDS011;16320;53.954;9.506;2022-11-15T15:40:58;26.15;;;14.60;;
29314;SDS011;16320;53.954;9.506;2022-11-15T15:44:05;23.83;;;13.55;;
29314;SDS011;16320;53.954;9.506;2022-11-15T15:47:19;23.30;;;13.23;;
29314;SDS011;16320;53.954;9.506;2022-11-15T15:50:27;25.38;;;14.18;;
29314;SDS011;16320;53.954;9.506;2022-11-15T15:53:40;20.42;;;13.35;;
29314;SDS011;16320;53.954;9.506;2022-11-15T15:56:45;22.60;;;14.20;;
29314;SDS011;16320;53.954;9.506;2022-11-15T15:59:52;22.33;;;13.52;;
29314;SDS011;16320;53.954;9.506;2022-11-15T16:02:57;20.45;;;13.32;;
29314;SDS011;16320;53.954;9.506;2022-11-15T16:06:02;20.02;;;12.70;;
29314;SDS011;16320;53.954;9.506;2022-11-15T16:09:08;25.70;;;13.85;;
29314;SDS011;16320;53.954;9.506;2022-11-15T16:12:21;24.00;;;14.70;;
29314;SDS011;16320;53.954;9.506;2022-11-15T16:15:27;23.23;;;15.73;;
29314;SDS011;16320;53.954;9.506;2022-11-15T16:18:34;22.02;;;13.45;;
29314;SDS011;16320;53.954;9.506;2022-11-15T16:21:39;23.50;;;15.13;;
29314;SDS011;16320;53.954;9.506;2022-11-15T16:24:43;24.17;;;14.48;;
29314;SDS011;16320;53.954;9.506;2022-11-15T16:27:48;23.33;;;15.02;;
29314;SDS011;16320;53.954;9.506;2022-11-15T16:31:03;25.75;;;15.70;;
29314;SDS011;16320;53.954;9.506;2022-11-15T16:34:09;25.13;;;15.65;;
29314;SDS011;16320;53.954;9.506;2022-11-15T16:37:23;27.48;;;17.48;;
29314;SDS011;16320;53.954;9.506;2022-11-15T16:40:29;28.00;;;16.77;;
29314;SDS011;16320;53.954;9.506;2022-11-15T16:43:37;28.40;;;16.65;;
29314;SDS011;16320;53.954;9.506;2022-11-15T16:46:41;30.27;;;17.33;;
29314;SDS011;16320;53.954;9.506;2022-11-15T16:49:46;24.55;;;16.23;;
29314;SDS011;16320;53.954;9.506;2022-11-15T16:52:51;28.52;;;17.05;;
29314;SDS011;16320;53.954;9.506;2022-11-15T16:56:00;32.42;;;17.73;;
29314;SDS011;16320;53.954;9.506;2022-11-15T16:59:05;30.15;;;17.95;;
29314;SDS011;16320;53.954;9.506;2022-11-15T17:02:12;30.40;;;16.52;;
29314;SDS011;16320;53.954;9.506;2022-11-15T17:05:19;31.38;;;16.58;;
29314;SDS011;16320;53.954;9.506;2022-11-15T17:08:26;26.27;;;17.00;;
29314;SDS011;16320;53.954;9.506;2022-11-15T17:11:31;29.00;;;17.52;;
29314;SDS011;16320;53.954;9.506;2022-11-15T17:14:36;26.95;;;16.10;;
29314;SDS011;16320;53.954;9.506;2022-11-15T17:17:43;30.15;;;16.00;;
29314;SDS011;16320;53.954;9.506;2022-11-15T17:20:48;29.60;;;16.98;;
29314;SDS011;16320;53.954;9.506;2022-11-15T17:23:53;28.73;;;17.25;;
29314;SDS011;16320;53.954;9.506;2022-11-15T17:26:58;28.13;;;17.35;;
29314;SDS011;16320;53.954;9.506;2022-11-15T17:30:02;26.75;;;16.58;;
29314;SDS011;16320;53.954;9.506;2022-11-15T17:33:08;26.85;;;17.38;;
29314;SDS011;16320;53.954;9.506;2022-11-15T17:36:12;25.55;;;15.82;;
29314;SDS011;16320;53.954;9.506;2022-11-15T17:39:17;28.02;;;17.30;;
29314;SDS011;16320;53.954;9.506;2022-11-15T17:42:23;31.55;;;18.13;;
29314;SDS011;16320;53.954;9.506;2022-11-15T17:48:31;27.52;;;16.67;;
29314;SDS011;16320;53.954;9.506;2022-11-15T17:51:36;30.05;;;17.60;;
29314;SDS011;16320;53.954;9.506;2022-11-15T17:54:40;32.85;;;18.20;;
29314;SDS011;16320;53.954;9.506;2022-11-15T17:57:45;40.60;;;17.98;;
29314;SDS011;16320;53.954;9.506;2022-11-15T18:00:49;34.75;;;18.10;;
29314;SDS011;16320;53.954;9.506;2022-11-15T18:03:54;40.20;;;18.33;;
29314;SDS011;16320;53.954;9.506;2022-11-15T18:07:00;30.92;;;18.70;;
29314;SDS011;16320;53.954;9.506;2022-11-15T18:10:05;34.03;;;19.08;;
29314;SDS011;16320;53.954;9.506;2022-11-15T18:13:10;30.85;;;18.60;;
29314;SDS011;16320;53.954;9.506;2022-11-15T18:16:16;34.15;;;18.70;;
29314;SDS011;16320;53.954;9.506;2022-11-15T18:19:24;34.42;;;18.67;;
29314;SDS011;16320;53.954;9.506;2022-11-15T18:22:28;35.80;;;18.83;;
29314;SDS011;16320;53.954;9.506;2022-11-15T18:25:32;31.60;;;18.88;;
29314;SDS011;16320;53.954;9.506;2022-11-15T18:28:37;36.22;;;19.45;;
29314;SDS011;16320;53.954;9.506;2022-11-15T18:31:45;34.83;;;19.35;;
29314;SDS011;16320;53.954;9.506;2022-11-15T18:34:52;30.20;;;18.10;;
29314;SDS011;16320;53.954;9.506;2022-11-15T18:37:57;34.60;;;19.42;;
29314;SDS011;16320;53.954;9.506;2022-11-15T18:41:12;29.98;;;18.25;;
29314;SDS011;16320;53.954;9.506;2022-11-15T18:44:22;33.38;;;18.83;;
29314;SDS011;16320;53.954;9.506;2022-11-15T18:47:26;37.28;;;19.58;;
29314;SDS011;16320;53.954;9.506;2022-11-15T18:50:33;37.50;;;19.50;;
29314;SDS011;16320;53.954;9.506;2022-11-15T18:53:38;32.90;;;18.75;;
29314;SDS011;16320;53.954;9.506;2022-11-15T18:56:44;37.97;;;19.05;;
29314;SDS011;16320;53.954;9.506;2022-11-15T18:59:49;35.22;;;20.42;;
29314;SDS011;16320;53.954;9.506;2022-11-15T19:02:54;36.97;;;20.38;;
29314;SDS011;16320;53.954;9.506;2022-11-15T19:06:05;32.75;;;18.88;;
29314;SDS011;16320;53.954;9.506;2022-11-15T19:09:16;35.97;;;20.27;;
29314;SDS011;16320;53.954;9.506;2022-11-15T19:12:22;36.65;;;20.35;;
29314;SDS011;16320;53.954;9.506;2022-11-15T19:15:30;40.95;;;20.98;;
29314;SDS011;16320;53.954;9.506;2022-11-15T19:18:38;37.00;;;19.33;;
29314;SDS011;16320;53.954;9.506;2022-11-15T19:21:53;32.45;;;18.90;;
29314;SDS011;16320;53.954;9.506;2022-11-15T19:25:00;38.45;;;20.83;;
29314;SDS011;16320;53.954;9.506;2022-11-15T19:28:08;38.85;;;21.10;;
29314;SDS011;16320;53.954;9.506;2022-11-15T19:31:15;35.17;;;21.23;;
29314;SDS011;16320;53.954;9.506;2022-11-15T19:34:20;47.20;;;23.98;;
29314;SDS011;16320;53.954;9.506;2022-11-15T19:37:27;38.53;;;20.38;;
29314;SDS011;16320;53.954;9.506;2022-11-15T19:40:32;44.30;;;22.63;;
29314;SDS011;16320;53.954;9.506;2022-11-15T19:43:37;46.67;;;23.77;;
29314;SDS011;16320;53.954;9.506;2022-11-15T19:46:44;39.53;;;21.45;;
29314;SDS011;16320;53.954;9.506;2022-11-15T19:49:52;43.80;;;22.13;;
29314;SDS011;16320;53.954;9.506;2022-11-15T19:52:59;48.90;;;22.38;;
29314;SDS011;16320;53.954;9.506;2022-11-15T19:56:10;40.42;;;21.50;;
29314;SDS011;16320;53.954;9.506;2022-11-15T19:59:17;44.70;;;23.85;;
29314;SDS011;16320;53.954;9.506;2022-11-15T20:02:22;41.70;;;22.13;;
29314;SDS011;16320;53.954;9.506;2022-11-15T20:05:26;41.28;;;21.80;;
29314;SDS011;16320;53.954;9.506;2022-11-15T20:08:31;40.90;;;23.25;;
29314;SDS011;16320;53.954;9.506;2022-11-15T20:11:57;39.53;;;21.73;;
29314;SDS011;16320;53.954;9.506;2022-11-15T20:15:03;41.97;;;23.15;;
29314;SDS011;16320;53.954;9.506;2022-11-15T20:18:08;41.25;;;22.85;;
29314;SDS011;16320;53.954;9.506;2022-11-15T20:21:41;41.35;;;21.15;;
29314;SDS011;16320;53.954;9.506;2022-11-15T20:25:30;43.90;;;23.45;;
29314;SDS011;16320;53.954;9.506;2022-11-15T20:29:04;42.50;;;22.80;;
29314;SDS011;16320;53.954;9.506;2022-11-15T20:32:15;48.60;;;24.33;;
29314;SDS011;16320;53.954;9.506;2022-11-15T20:35:29;47.90;;;25.10;;
29314;SDS011;16320;53.954;9.506;2022-11-15T20:38:43;46.28;;;23.38;;
29314;SDS011;16320;53.954;9.506;2022-11-15T20:41:48;41.50;;;22.45;;
29314;SDS011;16320;53.954;9.506;2022-11-15T20:44:54;40.67;;;22.17;;
29314;SDS011;16320;53.954;9.506;2022-11-15T20:54:14;38.95;;;21.73;;
29314;SDS011;16320;53.954;9.506;2022-11-15T20:57:19;39.10;;;21.52;;
29314;SDS011;16320;53.954;9.506;2022-11-15T21:00:26;40.10;;;23.23;;
29314;SDS011;16320;53.954;9.506;2022-11-15T21:03:34;38.40;;;22.42;;
29314;SDS011;16320;53.954;9.506;2022-11-15T21:06:39;44.70;;;23.08;;